sensor_id;sensor_type;location;lat;lon;timestamp;P1;durP1;ratioP1;P2;durP2;ratioP2
78344;SDS011;67620;51.134;6.548;2023-04-21T00:01:23;29.92;;;20.80;;
78344;SDS011;67620;51.134;6.548;2023-04-21T00:03:49;30.88;;;20.55;;
78344;SDS011;67620;51.134;6.548;2023-04-21T00:06:14;28.25;;;20.10;;
78344;SDS011;67620;51.134;6.548;2023-04-21T00:08:46;30.58;;;21.15;;
78344;SDS011;67620;51.134;6.548;2023-04-21T00:11:12;28.77;;;20.70;;
78344;SDS011;67620;51.134;6.548;2023-04-21T00:13:39;30.70;;;21.10;;
78344;SDS011;67620;51.134;6.548;2023-04-21T00:16:04;29.02;;;20.13;;
78344;SDS011;67620;51.134;6.548;2023-04-21T00:18:30;30.63;;;20.00;;
78344;SDS011;67620;51.134;6.548;2023-04-21T00:20:56;33.20;;;22.27;;
78344;SDS011;67620;51.134;6.548;2023-04-21T00:23:21;33.15;;;20.98;;
78344;SDS011;67620;51.134;6.548;2023-04-21T00:25:47;30.75;;;21.20;;
78344;SDS011;67620;51.134;6.548;2023-04-21T00:28:13;30.90;;;20.77;;
78344;SDS011;67620;51.134;6.548;2023-04-21T00:30:38;32.90;;;21.00;;
78344;SDS011;67620;51.134;6.548;2023-04-21T00:33:04;31.10;;;21.88;;
78344;SDS011;67620;51.134;6.548;2023-04-21T00:37:55;31.65;;;19.65;;
78344;SDS011;67620;51.134;6.548;2023-04-21T00:40:21;29.42;;;19.92;;
78344;SDS011;67620;51.134;6.548;2023-04-21T00:42:46;29.38;;;19.67;;
78344;SDS011;67620;51.134;6.548;2023-04-21T00:45:12;29.38;;;19.50;;
78344;SDS011;67620;51.134;6.548;2023-04-21T00:47:39;30.98;;;21.58;;
78344;SDS011;67620;51.134;6.548;2023-04-21T00:50:05;32.28;;;20.90;;
78344;SDS011;67620;51.134;6.548;2023-04-21T00:52:31;28.25;;;19.10;;
78344;SDS011;67620;51.134;6.548;2023-04-21T00:54:58;32.85;;;19.88;;
78344;SDS011;67620;51.134;6.548;2023-04-21T00:57:24;32.13;;;21.25;;
78344;SDS011;67620;51.134;6.548;2023-04-21T00:59:52;29.48;;;20.38;;
78344;SDS011;67620;51.134;6.548;2023-04-21T01:02:18;33.17;;;20.92;;
78344;SDS011;67620;51.134;6.548;2023-04-21T01:04:44;33.67;;;21.85;;
78344;SDS011;67620;51.134;6.548;2023-04-21T01:07:09;31.25;;;20.98;;
78344;SDS011;67620;51.134;6.548;2023-04-21T01:09:35;31.15;;;19.77;;
78344;SDS011;67620;51.134;6.548;2023-04-21T01:14:34;33.03;;;20.70;;
78344;SDS011;67620;51.134;6.548;2023-04-21T01:17:00;35.58;;;21.88;;
78344;SDS011;67620;51.134;6.548;2023-04-21T01:19:29;34.75;;;21.77;;
78344;SDS011;67620;51.134;6.548;2023-04-21T01:21:58;34.25;;;21.38;;
78344;SDS011;67620;51.134;6.548;2023-04-21T01:24:34;34.03;;;21.65;;
78344;SDS011;67620;51.134;6.548;2023-04-21T01:27:01;33.17;;;21.23;;
78344;SDS011;67620;51.134;6.548;2023-04-21T01:29:27;32.13;;;21.40;;
78344;SDS011;67620;51.134;6.548;2023-04-21T01:31:56;36.63;;;21.75;;
78344;SDS011;67620;51.134;6.548;2023-04-21T01:34:21;36.20;;;22.75;;
78344;SDS011;67620;51.134;6.548;2023-04-21T01:36:47;37.08;;;22.70;;
78344;SDS011;67620;51.134;6.548;2023-04-21T01:39:12;33.17;;;21.30;;
78344;SDS011;67620;51.134;6.548;2023-04-21T01:41:38;32.72;;;21.27;;
78344;SDS011;67620;51.134;6.548;2023-04-21T01:44:03;35.67;;;22.63;;
78344;SDS011;67620;51.134;6.548;2023-04-21T01:46:29;32.70;;;22.52;;
78344;SDS011;67620;51.134;6.548;2023-04-21T01:48:54;35.47;;;22.33;;
78344;SDS011;67620;51.134;6.548;2023-04-21T01:51:20;37.30;;;23.27;;
78344;SDS011;67620;51.134;6.548;2023-04-21T01:53:45;37.35;;;23.85;;
78344;SDS011;67620;51.134;6.548;2023-04-21T01:56:14;37.13;;;22.02;;
78344;SDS011;67620;51.134;6.548;2023-04-21T01:58:40;41.35;;;23.65;;
78344;SDS011;67620;51.134;6.548;2023-04-21T02:01:05;37.03;;;21.92;;
78344;SDS011;67620;51.134;6.548;2023-04-21T02:03:31;35.45;;;22.98;;
78344;SDS011;67620;51.134;6.548;2023-04-21T02:05:56;33.55;;;21.63;;
78344;SDS011;67620;51.134;6.548;2023-04-21T02:08:22;35.85;;;22.63;;
78344;SDS011;67620;51.134;6.548;2023-04-21T02:10:47;32.45;;;21.30;;
78344;SDS011;67620;51.134;6.548;2023-04-21T02:13:13;39.78;;;24.10;;
78344;SDS011;67620;51.134;6.548;2023-04-21T02:15:38;34.85;;;21.10;;
78344;SDS011;67620;51.134;6.548;2023-04-21T02:18:04;36.05;;;23.55;;
78344;SDS011;67620;51.134;6.548;2023-04-21T02:22:56;37.03;;;21.77;;
78344;SDS011;67620;51.134;6.548;2023-04-21T02:25:21;40.80;;;22.85;;
78344;SDS011;67620;51.134;6.548;2023-04-21T02:27:47;38.10;;;22.05;;
78344;SDS011;67620;51.134;6.548;2023-04-21T02:30:12;37.00;;;22.42;;
78344;SDS011;67620;51.134;6.548;2023-04-21T02:32:38;39.13;;;23.17;;
78344;SDS011;67620;51.134;6.548;2023-04-21T02:35:03;34.20;;;21.73;;
78344;SDS011;67620;51.134;6.548;2023-04-21T02:37:29;37.92;;;23.08;;
78344;SDS011;67620;51.134;6.548;2023-04-21T02:39:55;38.88;;;22.75;;
78344;SDS011;67620;51.134;6.548;2023-04-21T02:42:20;36.20;;;21.88;;
78344;SDS011;67620;51.134;6.548;2023-04-21T02:44:46;35.38;;;21.27;;
78344;SDS011;67620;51.134;6.548;2023-04-21T02:47:13;34.28;;;21.80;;
78344;SDS011;67620;51.134;6.548;2023-04-21T02:49:40;34.97;;;21.20;;
78344;SDS011;67620;51.134;6.548;2023-04-21T02:52:06;34.63;;;21.40;;
78344;SDS011;67620;51.134;6.548;2023-04-21T02:54:32;32.47;;;20.52;;
78344;SDS011;67620;51.134;6.548;2023-04-21T02:56:58;29.50;;;18.63;;
78344;SDS011;67620;51.134;6.548;2023-04-21T02:59:23;30.55;;;19.08;;
78344;SDS011;67620;51.134;6.548;2023-04-21T03:01:49;29.30;;;18.73;;
78344;SDS011;67620;51.134;6.548;2023-04-21T03:04:15;26.60;;;17.27;;
78344;SDS011;67620;51.134;6.548;2023-04-21T03:06:40;27.80;;;18.35;;
78344;SDS011;67620;51.134;6.548;2023-04-21T03:09:06;26.88;;;17.08;;
78344;SDS011;67620;51.134;6.548;2023-04-21T03:11:31;24.55;;;15.88;;
78344;SDS011;67620;51.134;6.548;2023-04-21T03:13:57;23.25;;;15.68;;
78344;SDS011;67620;51.134;6.548;2023-04-21T03:16:22;19.98;;;14.13;;
78344;SDS011;67620;51.134;6.548;2023-04-21T03:18:48;19.65;;;13.68;;
78344;SDS011;67620;51.134;6.548;2023-04-21T03:21:13;22.25;;;14.18;;
78344;SDS011;67620;51.134;6.548;2023-04-21T03:23:39;23.13;;;14.65;;
78344;SDS011;67620;51.134;6.548;2023-04-21T03:26:06;23.02;;;14.93;;
78344;SDS011;67620;51.134;6.548;2023-04-21T03:28:32;23.40;;;15.15;;
78344;SDS011;67620;51.134;6.548;2023-04-21T03:30:58;24.10;;;15.07;;
78344;SDS011;67620;51.134;6.548;2023-04-21T03:33:23;20.13;;;12.90;;
78344;SDS011;67620;51.134;6.548;2023-04-21T03:35:49;20.25;;;13.23;;
78344;SDS011;67620;51.134;6.548;2023-04-21T03:38:14;22.38;;;14.20;;
78344;SDS011;67620;51.134;6.548;2023-04-21T03:40:40;18.90;;;12.68;;
78344;SDS011;67620;51.134;6.548;2023-04-21T03:43:06;18.95;;;12.15;;
78344;SDS011;67620;51.134;6.548;2023-04-21T03:45:33;19.25;;;13.00;;
78344;SDS011;67620;51.134;6.548;2023-04-21T03:47:59;18.10;;;12.45;;
78344;SDS011;67620;51.134;6.548;2023-04-21T03:50:25;21.70;;;13.77;;
78344;SDS011;67620;51.134;6.548;2023-04-21T03:52:50;23.85;;;14.77;;
78344;SDS011;67620;51.134;6.548;2023-04-21T03:55:16;24.88;;;14.85;;
78344;SDS011;67620;51.134;6.548;2023-04-21T03:57:41;20.58;;;14.13;;
78344;SDS011;67620;51.134;6.548;2023-04-21T04:00:08;24.52;;;15.63;;
78344;SDS011;67620;51.134;6.548;2023-04-21T04:02:34;21.60;;;14.38;;
78344;SDS011;67620;51.134;6.548;2023-04-21T04:07:27;19.42;;;11.88;;
78344;SDS011;67620;51.134;6.548;2023-04-21T04:09:52;19.95;;;12.23;;
78344;SDS011;67620;51.134;6.548;2023-04-21T04:12:18;20.77;;;13.68;;
78344;SDS011;67620;51.134;6.548;2023-04-21T04:14:43;22.50;;;14.55;;
78344;SDS011;67620;51.134;6.548;2023-04-21T04:17:09;25.98;;;16.00;;
78344;SDS011;67620;51.134;6.548;2023-04-21T04:19:35;26.00;;;15.90;;
78344;SDS011;67620;51.134;6.548;2023-04-21T04:22:00;23.08;;;13.95;;
78344;SDS011;67620;51.134;6.548;2023-04-21T04:24:26;20.35;;;13.38;;
78344;SDS011;67620;51.134;6.548;2023-04-21T04:26:52;21.75;;;13.68;;
78344;SDS011;67620;51.134;6.548;2023-04-21T04:29:18;23.73;;;13.75;;
78344;SDS011;67620;51.134;6.548;2023-04-21T04:31:45;21.77;;;13.63;;
78344;SDS011;67620;51.134;6.548;2023-04-21T04:34:11;22.08;;;12.48;;
78344;SDS011;67620;51.134;6.548;2023-04-21T04:36:37;21.45;;;13.20;;
78344;SDS011;67620;51.134;6.548;2023-04-21T04:39:02;23.10;;;14.05;;
78344;SDS011;67620;51.134;6.548;2023-04-21T04:41:28;22.15;;;14.23;;
78344;SDS011;67620;51.134;6.548;2023-04-21T04:43:54;23.05;;;14.68;;
78344;SDS011;67620;51.134;6.548;2023-04-21T04:46:23;26.77;;;15.88;;
78344;SDS011;67620;51.134;6.548;2023-04-21T04:48:49;24.80;;;15.68;;
78344;SDS011;67620;51.134;6.548;2023-04-21T04:51:15;25.27;;;15.68;;
78344;SDS011;67620;51.134;6.548;2023-04-21T04:53:41;23.45;;;14.45;;
78344;SDS011;67620;51.134;6.548;2023-04-21T04:56:06;26.25;;;15.95;;
78344;SDS011;67620;51.134;6.548;2023-04-21T04:58:32;27.88;;;16.15;;
78344;SDS011;67620;51.134;6.548;2023-04-21T05:00:58;26.20;;;16.75;;
78344;SDS011;67620;51.134;6.548;2023-04-21T05:03:23;26.13;;;15.63;;
78344;SDS011;67620;51.134;6.548;2023-04-21T05:05:49;26.23;;;16.85;;
78344;SDS011;67620;51.134;6.548;2023-04-21T05:08:14;24.50;;;15.43;;
78344;SDS011;67620;51.134;6.548;2023-04-21T05:10:40;29.17;;;17.63;;
78344;SDS011;67620;51.134;6.548;2023-04-21T05:13:05;29.38;;;17.15;;
78344;SDS011;67620;51.134;6.548;2023-04-21T05:15:31;29.10;;;17.73;;
78344;SDS011;67620;51.134;6.548;2023-04-21T05:17:56;26.83;;;17.65;;
78344;SDS011;67620;51.134;6.548;2023-04-21T05:20:22;29.90;;;19.20;;
78344;SDS011;67620;51.134;6.548;2023-04-21T05:22:48;30.27;;;18.02;;
78344;SDS011;67620;51.134;6.548;2023-04-21T05:25:13;28.15;;;17.85;;
78344;SDS011;67620;51.134;6.548;2023-04-21T05:30:05;29.15;;;16.90;;
78344;SDS011;67620;51.134;6.548;2023-04-21T05:34:57;30.17;;;17.83;;
78344;SDS011;67620;51.134;6.548;2023-04-21T05:37:24;29.23;;;17.27;;
78344;SDS011;67620;51.134;6.548;2023-04-21T05:39:50;28.50;;;19.05;;
78344;SDS011;67620;51.134;6.548;2023-04-21T05:42:16;29.73;;;18.30;;
78344;SDS011;67620;51.134;6.548;2023-04-21T05:44:42;33.35;;;19.15;;
78344;SDS011;67620;51.134;6.548;2023-04-21T05:47:07;31.60;;;19.88;;
78344;SDS011;67620;51.134;6.548;2023-04-21T05:49:33;32.00;;;18.60;;
78344;SDS011;67620;51.134;6.548;2023-04-21T05:51:58;33.85;;;19.95;;
78344;SDS011;67620;51.134;6.548;2023-04-21T05:54:24;32.20;;;20.30;;
78344;SDS011;67620;51.134;6.548;2023-04-21T05:56:50;35.33;;;21.25;;
78344;SDS011;67620;51.134;6.548;2023-04-21T05:59:15;36.20;;;21.38;;
78344;SDS011;67620;51.134;6.548;2023-04-21T06:01:41;34.88;;;21.35;;
78344;SDS011;67620;51.134;6.548;2023-04-21T06:04:07;34.50;;;20.45;;
78344;SDS011;67620;51.134;6.548;2023-04-21T06:06:33;34.47;;;20.27;;
78344;SDS011;67620;51.134;6.548;2023-04-21T06:08:58;35.30;;;20.52;;
78344;SDS011;67620;51.134;6.548;2023-04-21T06:11:24;34.92;;;20.67;;
78344;SDS011;67620;51.134;6.548;2023-04-21T06:13:50;37.33;;;21.00;;
78344;SDS011;67620;51.134;6.548;2023-04-21T06:16:17;32.92;;;19.90;;
78344;SDS011;67620;51.134;6.548;2023-04-21T06:18:43;33.92;;;20.30;;
78344;SDS011;67620;51.134;6.548;2023-04-21T06:21:09;33.70;;;20.13;;
78344;SDS011;67620;51.134;6.548;2023-04-21T06:23:35;34.75;;;20.10;;
78344;SDS011;67620;51.134;6.548;2023-04-21T06:26:04;37.00;;;20.95;;
78344;SDS011;67620;51.134;6.548;2023-04-21T06:28:31;33.97;;;20.60;;
78344;SDS011;67620;51.134;6.548;2023-04-21T06:31:00;35.22;;;20.45;;
78344;SDS011;67620;51.134;6.548;2023-04-21T06:33:26;37.33;;;21.13;;
78344;SDS011;67620;51.134;6.548;2023-04-21T06:35:52;32.95;;;21.08;;
78344;SDS011;67620;51.134;6.548;2023-04-21T06:38:18;32.80;;;20.35;;
78344;SDS011;67620;51.134;6.548;2023-04-21T06:40:44;33.33;;;20.73;;
78344;SDS011;67620;51.134;6.548;2023-04-21T06:43:10;32.80;;;20.23;;
78344;SDS011;67620;51.134;6.548;2023-04-21T06:45:35;36.33;;;21.55;;
78344;SDS011;67620;51.134;6.548;2023-04-21T06:48:01;45.78;;;25.15;;
78344;SDS011;67620;51.134;6.548;2023-04-21T06:50:26;44.20;;;26.65;;
78344;SDS011;67620;51.134;6.548;2023-04-21T06:52:52;35.70;;;21.50;;
78344;SDS011;67620;51.134;6.548;2023-04-21T06:55:17;36.05;;;21.10;;
78344;SDS011;67620;51.134;6.548;2023-04-21T06:57:43;35.15;;;21.50;;
78344;SDS011;67620;51.134;6.548;2023-04-21T07:00:09;33.33;;;20.08;;
78344;SDS011;67620;51.134;6.548;2023-04-21T07:02:34;33.90;;;20.75;;
78344;SDS011;67620;51.134;6.548;2023-04-21T07:05:00;33.65;;;21.42;;
78344;SDS011;67620;51.134;6.548;2023-04-21T07:07:25;33.10;;;20.52;;
78344;SDS011;67620;51.134;6.548;2023-04-21T07:09:51;35.70;;;20.70;;
78344;SDS011;67620;51.134;6.548;2023-04-21T07:12:17;34.35;;;20.48;;
78344;SDS011;67620;51.134;6.548;2023-04-21T07:14:45;34.28;;;21.50;;
78344;SDS011;67620;51.134;6.548;2023-04-21T07:17:11;33.22;;;20.70;;
78344;SDS011;67620;51.134;6.548;2023-04-21T07:19:36;34.42;;;21.00;;
78344;SDS011;67620;51.134;6.548;2023-04-21T07:22:03;33.60;;;21.45;;
78344;SDS011;67620;51.134;6.548;2023-04-21T07:24:29;33.63;;;21.45;;
78344;SDS011;67620;51.134;6.548;2023-04-21T07:26:54;35.25;;;20.98;;
78344;SDS011;67620;51.134;6.548;2023-04-21T07:29:20;33.90;;;21.88;;
78344;SDS011;67620;51.134;6.548;2023-04-21T07:31:45;34.60;;;20.60;;
78344;SDS011;67620;51.134;6.548;2023-04-21T07:34:12;45.17;;;27.45;;
78344;SDS011;67620;51.134;6.548;2023-04-21T07:36:37;43.28;;;26.52;;
78344;SDS011;67620;51.134;6.548;2023-04-21T07:39:03;32.17;;;19.95;;
78344;SDS011;67620;51.134;6.548;2023-04-21T07:41:29;33.28;;;20.00;;
78344;SDS011;67620;51.134;6.548;2023-04-21T07:43:54;36.30;;;21.55;;
78344;SDS011;67620;51.134;6.548;2023-04-21T07:46:20;32.92;;;20.48;;
78344;SDS011;67620;51.134;6.548;2023-04-21T07:48:47;37.03;;;21.90;;
78344;SDS011;67620;51.134;6.548;2023-04-21T07:51:13;32.45;;;20.38;;
78344;SDS011;67620;51.134;6.548;2023-04-21T07:53:41;32.70;;;20.30;;
78344;SDS011;67620;51.134;6.548;2023-04-21T07:56:07;30.95;;;18.75;;
78344;SDS011;67620;51.134;6.548;2023-04-21T07:58:33;30.77;;;19.40;;
78344;SDS011;67620;51.134;6.548;2023-04-21T08:00:58;33.22;;;19.58;;
78344;SDS011;67620;51.134;6.548;2023-04-21T08:03:24;32.05;;;20.75;;
78344;SDS011;67620;51.134;6.548;2023-04-21T08:05:49;29.88;;;20.08;;
78344;SDS011;67620;51.134;6.548;2023-04-21T08:08:15;33.10;;;20.52;;
78344;SDS011;67620;51.134;6.548;2023-04-21T08:10:44;30.48;;;19.50;;
78344;SDS011;67620;51.134;6.548;2023-04-21T08:13:10;32.47;;;21.33;;
78344;SDS011;67620;51.134;6.548;2023-04-21T08:15:35;32.65;;;20.33;;
78344;SDS011;67620;51.134;6.548;2023-04-21T08:18:01;32.38;;;19.10;;
78344;SDS011;67620;51.134;6.548;2023-04-21T08:20:26;33.08;;;20.75;;
78344;SDS011;67620;51.134;6.548;2023-04-21T08:22:52;31.83;;;19.63;;
78344;SDS011;67620;51.134;6.548;2023-04-21T08:25:17;33.67;;;20.55;;
78344;SDS011;67620;51.134;6.548;2023-04-21T08:27:43;30.63;;;19.25;;
78344;SDS011;67620;51.134;6.548;2023-04-21T08:30:08;31.27;;;19.38;;
78344;SDS011;67620;51.134;6.548;2023-04-21T08:32:34;31.58;;;18.52;;
78344;SDS011;67620;51.134;6.548;2023-04-21T08:35:00;33.85;;;18.80;;
78344;SDS011;67620;51.134;6.548;2023-04-21T08:37:26;30.40;;;19.95;;
78344;SDS011;67620;51.134;6.548;2023-04-21T08:39:51;32.83;;;19.25;;
78344;SDS011;67620;51.134;6.548;2023-04-21T08:42:18;32.13;;;19.88;;
78344;SDS011;67620;51.134;6.548;2023-04-21T08:44:45;31.30;;;18.90;;
78344;SDS011;67620;51.134;6.548;2023-04-21T08:47:11;32.13;;;19.90;;
78344;SDS011;67620;51.134;6.548;2023-04-21T08:49:38;31.33;;;18.52;;
78344;SDS011;67620;51.134;6.548;2023-04-21T08:52:05;30.65;;;18.85;;
78344;SDS011;67620;51.134;6.548;2023-04-21T08:54:31;29.05;;;17.23;;
78344;SDS011;67620;51.134;6.548;2023-04-21T08:56:57;31.17;;;17.50;;
78344;SDS011;67620;51.134;6.548;2023-04-21T08:59:23;28.95;;;17.73;;
78344;SDS011;67620;51.134;6.548;2023-04-21T09:04:36;28.45;;;17.38;;
78344;SDS011;67620;51.134;6.548;2023-04-21T09:07:03;25.85;;;16.13;;
78344;SDS011;67620;51.134;6.548;2023-04-21T09:09:29;27.90;;;16.83;;
78344;SDS011;67620;51.134;6.548;2023-04-21T09:11:57;26.73;;;16.63;;
78344;SDS011;67620;51.134;6.548;2023-04-21T09:14:33;26.15;;;16.08;;
78344;SDS011;67620;51.134;6.548;2023-04-21T09:17:00;28.00;;;17.33;;
78344;SDS011;67620;51.134;6.548;2023-04-21T09:19:27;47.17;;;30.95;;
78344;SDS011;67620;51.134;6.548;2023-04-21T09:21:54;26.30;;;15.90;;
78344;SDS011;67620;51.134;6.548;2023-04-21T09:24:20;28.05;;;15.68;;
78344;SDS011;67620;51.134;6.548;2023-04-21T09:26:52;23.55;;;15.40;;
78344;SDS011;67620;51.134;6.548;2023-04-21T09:29:21;26.45;;;15.25;;
78344;SDS011;67620;51.134;6.548;2023-04-21T09:31:48;24.77;;;14.70;;
78344;SDS011;67620;51.134;6.548;2023-04-21T09:34:18;26.58;;;15.85;;
78344;SDS011;67620;51.134;6.548;2023-04-21T09:36:51;27.33;;;16.40;;
78344;SDS011;67620;51.134;6.548;2023-04-21T09:39:29;23.95;;;14.73;;
78344;SDS011;67620;51.134;6.548;2023-04-21T09:41:58;23.23;;;15.10;;
78344;SDS011;67620;51.134;6.548;2023-04-21T09:44:24;24.52;;;14.48;;
78344;SDS011;67620;51.134;6.548;2023-04-21T09:49:18;23.65;;;14.63;;
78344;SDS011;67620;51.134;6.548;2023-04-21T09:51:46;23.73;;;15.40;;
78344;SDS011;67620;51.134;6.548;2023-04-21T09:54:16;26.48;;;15.55;;
78344;SDS011;67620;51.134;6.548;2023-04-21T09:56:43;26.77;;;15.40;;
78344;SDS011;67620;51.134;6.548;2023-04-21T09:59:14;25.00;;;14.73;;
78344;SDS011;67620;51.134;6.548;2023-04-21T10:01:44;27.00;;;15.30;;
78344;SDS011;67620;51.134;6.548;2023-04-21T10:04:13;25.23;;;14.55;;
78344;SDS011;67620;51.134;6.548;2023-04-21T10:06:39;23.02;;;14.48;;
78344;SDS011;67620;51.134;6.548;2023-04-21T10:09:05;27.85;;;16.35;;
78344;SDS011;67620;51.134;6.548;2023-04-21T10:11:33;24.52;;;13.80;;
78344;SDS011;67620;51.134;6.548;2023-04-21T10:14:00;23.77;;;15.35;;
78344;SDS011;67620;51.134;6.548;2023-04-21T10:18:51;25.27;;;15.93;;
78344;SDS011;67620;51.134;6.548;2023-04-21T10:21:18;27.52;;;16.45;;
78344;SDS011;67620;51.134;6.548;2023-04-21T10:23:52;26.90;;;15.52;;
78344;SDS011;67620;51.134;6.548;2023-04-21T10:26:34;25.65;;;16.45;;
78344;SDS011;67620;51.134;6.548;2023-04-21T10:29:00;30.77;;;18.80;;
78344;SDS011;67620;51.134;6.548;2023-04-21T10:31:31;31.15;;;18.70;;
78344;SDS011;67620;51.134;6.548;2023-04-21T10:34:11;24.60;;;16.10;;
78344;SDS011;67620;51.134;6.548;2023-04-21T10:39:24;32.55;;;15.77;;
78344;SDS011;67620;51.134;6.548;2023-04-21T10:44:44;52.95;;;22.27;;
78344;SDS011;67620;51.134;6.548;2023-04-21T10:47:39;44.55;;;17.73;;
78344;SDS011;67620;51.134;6.548;2023-04-21T10:50:13;27.27;;;16.30;;
78344;SDS011;67620;51.134;6.548;2023-04-21T10:52:45;29.50;;;17.40;;
78344;SDS011;67620;51.134;6.548;2023-04-21T10:55:15;28.38;;;17.20;;
78344;SDS011;67620;51.134;6.548;2023-04-21T10:57:41;28.30;;;18.40;;
78344;SDS011;67620;51.134;6.548;2023-04-21T11:00:09;23.77;;;15.40;;
78344;SDS011;67620;51.134;6.548;2023-04-21T11:02:36;26.40;;;16.15;;
78344;SDS011;67620;51.134;6.548;2023-04-21T11:05:01;28.10;;;17.20;;
78344;SDS011;67620;51.134;6.548;2023-04-21T11:07:27;29.25;;;18.42;;
78344;SDS011;67620;51.134;6.548;2023-04-21T11:10:06;32.33;;;20.15;;
78344;SDS011;67620;51.134;6.548;2023-04-21T11:12:33;28.80;;;18.13;;
78344;SDS011;67620;51.134;6.548;2023-04-21T11:15:06;32.33;;;18.38;;
78344;SDS011;67620;51.134;6.548;2023-04-21T11:17:35;28.00;;;18.20;;
78344;SDS011;67620;51.134;6.548;2023-04-21T11:20:07;24.08;;;15.55;;
78344;SDS011;67620;51.134;6.548;2023-04-21T11:22:35;24.60;;;17.48;;
78344;SDS011;67620;51.134;6.548;2023-04-21T11:25:01;24.63;;;15.32;;
78344;SDS011;67620;51.134;6.548;2023-04-21T11:27:28;24.05;;;14.73;;
78344;SDS011;67620;51.134;6.548;2023-04-21T11:29:54;21.90;;;14.65;;
78344;SDS011;67620;51.134;6.548;2023-04-21T11:32:21;21.92;;;14.65;;
78344;SDS011;67620;51.134;6.548;2023-04-21T11:37:13;22.95;;;13.48;;
78344;SDS011;67620;51.134;6.548;2023-04-21T11:39:41;27.60;;;17.50;;
78344;SDS011;67620;51.134;6.548;2023-04-21T11:42:07;27.50;;;16.50;;
78344;SDS011;67620;51.134;6.548;2023-04-21T11:44:40;33.42;;;20.52;;
78344;SDS011;67620;51.134;6.548;2023-04-21T11:47:16;25.52;;;16.92;;
78344;SDS011;67620;51.134;6.548;2023-04-21T11:49:56;25.63;;;16.33;;
78344;SDS011;67620;51.134;6.548;2023-04-21T11:52:32;33.28;;;19.73;;
78344;SDS011;67620;51.134;6.548;2023-04-21T11:55:02;23.70;;;15.35;;
78344;SDS011;67620;51.134;6.548;2023-04-21T11:57:29;66.63;;;40.40;;
78344;SDS011;67620;51.134;6.548;2023-04-21T12:00:03;20.70;;;14.43;;
78344;SDS011;67620;51.134;6.548;2023-04-21T12:02:30;23.38;;;14.77;;
78344;SDS011;67620;51.134;6.548;2023-04-21T12:07:31;21.52;;;13.65;;
78344;SDS011;67620;51.134;6.548;2023-04-21T12:09:57;17.85;;;11.75;;
78344;SDS011;67620;51.134;6.548;2023-04-21T12:12:24;21.60;;;13.93;;
78344;SDS011;67620;51.134;6.548;2023-04-21T12:14:50;20.38;;;13.00;;
78344;SDS011;67620;51.134;6.548;2023-04-21T12:17:16;20.05;;;12.80;;
78344;SDS011;67620;51.134;6.548;2023-04-21T12:19:42;22.60;;;14.50;;
78344;SDS011;67620;51.134;6.548;2023-04-21T12:22:09;23.98;;;14.57;;
78344;SDS011;67620;51.134;6.548;2023-04-21T12:24:39;25.08;;;14.77;;
78344;SDS011;67620;51.134;6.548;2023-04-21T12:27:06;18.52;;;12.20;;
78344;SDS011;67620;51.134;6.548;2023-04-21T12:29:32;18.38;;;12.10;;
78344;SDS011;67620;51.134;6.548;2023-04-21T12:32:02;15.82;;;9.68;;
78344;SDS011;67620;51.134;6.548;2023-04-21T12:34:29;19.08;;;12.63;;
78344;SDS011;67620;51.134;6.548;2023-04-21T12:36:54;17.55;;;11.52;;
78344;SDS011;67620;51.134;6.548;2023-04-21T12:39:20;14.63;;;9.18;;
78344;SDS011;67620;51.134;6.548;2023-04-21T12:41:46;12.07;;;8.80;;
78344;SDS011;67620;51.134;6.548;2023-04-21T12:44:12;16.55;;;8.05;;
78344;SDS011;67620;51.134;6.548;2023-04-21T12:46:38;12.98;;;9.10;;
78344;SDS011;67620;51.134;6.548;2023-04-21T12:51:31;15.20;;;9.85;;
78344;SDS011;67620;51.134;6.548;2023-04-21T12:56:22;17.55;;;11.48;;
78344;SDS011;67620;51.134;6.548;2023-04-21T12:58:48;18.90;;;12.65;;
78344;SDS011;67620;51.134;6.548;2023-04-21T13:03:40;12.20;;;8.55;;
78344;SDS011;67620;51.134;6.548;2023-04-21T13:08:31;15.55;;;9.15;;
78344;SDS011;67620;51.134;6.548;2023-04-21T13:10:57;12.45;;;7.90;;
78344;SDS011;67620;51.134;6.548;2023-04-21T13:13:22;12.25;;;8.35;;
78344;SDS011;67620;51.134;6.548;2023-04-21T13:15:48;20.67;;;14.77;;
78344;SDS011;67620;51.134;6.548;2023-04-21T13:18:14;22.73;;;17.55;;
78344;SDS011;67620;51.134;6.548;2023-04-21T13:20:39;24.60;;;18.10;;
78344;SDS011;67620;51.134;6.548;2023-04-21T13:23:05;19.80;;;14.93;;
78344;SDS011;67620;51.134;6.548;2023-04-21T13:25:32;23.63;;;15.77;;
78344;SDS011;67620;51.134;6.548;2023-04-21T13:30:23;15.98;;;10.10;;
78344;SDS011;67620;51.134;6.548;2023-04-21T13:35:14;13.80;;;9.05;;
78344;SDS011;67620;51.134;6.548;2023-04-21T13:37:40;26.58;;;16.63;;
78344;SDS011;67620;51.134;6.548;2023-04-21T13:40:06;17.25;;;12.38;;
78344;SDS011;67620;51.134;6.548;2023-04-21T13:42:34;16.90;;;11.05;;
78344;SDS011;67620;51.134;6.548;2023-04-21T13:45:00;19.55;;;13.63;;
78344;SDS011;67620;51.134;6.548;2023-04-21T13:47:28;20.10;;;12.95;;
78344;SDS011;67620;51.134;6.548;2023-04-21T13:49:54;15.93;;;11.48;;
78344;SDS011;67620;51.134;6.548;2023-04-21T13:54:45;17.45;;;10.35;;
78344;SDS011;67620;51.134;6.548;2023-04-21T13:59:36;12.18;;;8.77;;
78344;SDS011;67620;51.134;6.548;2023-04-21T14:04:28;26.83;;;16.80;;
78344;SDS011;67620;51.134;6.548;2023-04-21T14:09:19;17.52;;;11.50;;
78344;SDS011;67620;51.134;6.548;2023-04-21T14:14:10;21.42;;;14.77;;
78344;SDS011;67620;51.134;6.548;2023-04-21T14:19:02;18.75;;;11.35;;
78344;SDS011;67620;51.134;6.548;2023-04-21T14:23:53;14.07;;;9.93;;
78344;SDS011;67620;51.134;6.548;2023-04-21T14:26:19;12.95;;;9.23;;
78344;SDS011;67620;51.134;6.548;2023-04-21T14:28:44;15.35;;;10.27;;
78344;SDS011;67620;51.134;6.548;2023-04-21T14:33:35;12.07;;;8.65;;
78344;SDS011;67620;51.134;6.548;2023-04-21T14:38:27;14.40;;;10.35;;
78344;SDS011;67620;51.134;6.548;2023-04-21T14:40:54;11.77;;;9.02;;
78344;SDS011;67620;51.134;6.548;2023-04-21T14:45:46;14.52;;;9.68;;
78344;SDS011;67620;51.134;6.548;2023-04-21T14:48:12;12.63;;;8.38;;
78344;SDS011;67620;51.134;6.548;2023-04-21T14:53:03;12.95;;;9.65;;
78344;SDS011;67620;51.134;6.548;2023-04-21T14:57:55;13.75;;;9.82;;
78344;SDS011;67620;51.134;6.548;2023-04-21T15:02:47;15.20;;;10.75;;
78344;SDS011;67620;51.134;6.548;2023-04-21T15:07:38;22.77;;;15.60;;
78344;SDS011;67620;51.134;6.548;2023-04-21T15:12:30;12.10;;;8.63;;
78344;SDS011;67620;51.134;6.548;2023-04-21T15:17:22;9.35;;;6.97;;
78344;SDS011;67620;51.134;6.548;2023-04-21T15:19:48;12.93;;;9.35;;
78344;SDS011;67620;51.134;6.548;2023-04-21T15:24:39;13.98;;;10.50;;
78344;SDS011;67620;51.134;6.548;2023-04-21T15:29:30;9.75;;;6.47;;
78344;SDS011;67620;51.134;6.548;2023-04-21T15:31:55;8.75;;;6.60;;
78344;SDS011;67620;51.134;6.548;2023-04-21T15:36:47;11.95;;;8.25;;
78344;SDS011;67620;51.134;6.548;2023-04-21T15:39:12;11.30;;;8.48;;
78344;SDS011;67620;51.134;6.548;2023-04-21T15:44:03;11.73;;;8.05;;
78344;SDS011;67620;51.134;6.548;2023-04-21T15:46:29;9.88;;;6.93;;
78344;SDS011;67620;51.134;6.548;2023-04-21T15:48:55;16.17;;;11.35;;
78344;SDS011;67620;51.134;6.548;2023-04-21T15:53:46;33.65;;;22.67;;
78344;SDS011;67620;51.134;6.548;2023-04-21T15:56:13;17.50;;;12.00;;
78344;SDS011;67620;51.134;6.548;2023-04-21T15:58:39;16.13;;;11.70;;